createdAt,value
2023-04-02T00:00:19.958Z,101713.75
2023-04-02T00:03:04.779Z,101789.66
2023-04-02T00:05:56.990Z,101780.97
2023-04-02T00:08:31.120Z,101784.81
2023-04-02T00:11:04.731Z,101700.69
2023-04-02T00:13:42.645Z,101768.88
2023-04-02T00:16:17.193Z,101786.75
2023-04-02T00:18:52.894Z,101777.16
2023-04-02T00:21:27.213Z,101777.03
2023-04-02T00:23:59.364Z,101770.25
2023-04-02T00:26:36.048Z,101715.41
2023-04-02T00:29:08.016Z,101777.53
2023-04-02T00:31:44.069Z,101769.50
2023-04-02T00:34:20.701Z,101771.19
2023-04-02T00:36:52.172Z,101701.34
2023-04-02T00:39:26.356Z,101759.31
2023-04-02T00:42:07.652Z,101723.69
2023-04-02T00:44:44.651Z,101766.31
2023-04-02T00:47:21.400Z,101736.47
2023-04-02T00:49:58.295Z,101763.19
2023-04-02T00:52:32.112Z,101757.72
2023-04-02T00:55:09.264Z,101753.16
2023-04-02T00:57:45.805Z,101749.25
2023-04-02T01:00:26.493Z,101746.31
2023-04-02T01:03:31.162Z,101756.78
2023-04-02T01:06:05.474Z,101737.25
2023-04-02T01:08:55.596Z,101748.09
2023-04-02T01:11:45.501Z,101755.41
2023-04-02T01:14:20.640Z,101748.03
2023-04-02T01:16:55.858Z,101739.97
2023-04-02T01:20:09.004Z,101744.38
2023-04-02T01:22:48.849Z,101726.50
2023-04-02T01:25:21.770Z,101738.72
2023-04-02T01:27:58.991Z,101730.00
2023-04-02T01:30:31.264Z,101655.72
2023-04-02T01:33:02.396Z,101726.78
2023-04-02T01:35:38.776Z,101725.88
2023-04-02T01:38:14.741Z,101678.72
2023-04-02T01:40:52.159Z,101719.19
2023-04-02T01:43:28.585Z,101706.78
2023-04-02T01:46:02.894Z,101708.81
2023-04-02T01:48:34.029Z,101716.94
2023-04-02T01:51:10.237Z,101701.91
2023-04-02T01:53:40.736Z,101709.88
2023-04-02T01:56:11.179Z,101707.66
2023-04-02T01:58:41.781Z,101701.00
2023-04-02T02:01:18.741Z,101695.94
2023-04-02T02:03:49.606Z,101583.69
2023-04-02T02:06:21.934Z,101624.97
2023-04-02T02:08:56.478Z,101685.94
2023-04-02T02:11:31.495Z,101683.78
2023-04-02T02:14:03.773Z,101644.69
2023-04-02T02:16:42.592Z,101683.66
2023-04-02T02:19:25.156Z,101681.56
2023-04-02T02:21:57.540Z,101665.16
2023-04-02T02:24:32.484Z,101675.69
2023-04-02T02:27:20.320Z,101674.06
2023-04-02T02:29:55.732Z,101681.00
2023-04-02T02:32:31.896Z,101673.59
2023-04-02T02:35:10.485Z,101672.81
2023-04-02T02:37:46.448Z,101661.47
2023-04-02T02:40:22.519Z,101660.69
2023-04-02T02:42:57.965Z,101643.06
2023-04-02T02:45:32.055Z,101618.78
2023-04-02T02:48:05.271Z,101647.25
2023-04-02T02:50:37.879Z,101640.00
2023-04-02T02:53:16.872Z,101624.38
2023-04-02T02:55:49.223Z,101640.66
2023-04-02T02:58:24.314Z,101622.75
2023-04-02T03:00:55.423Z,101620.09
2023-04-02T03:03:33.421Z,101624.84
2023-04-02T03:06:08.059Z,101627.03
2023-04-02T03:08:42.937Z,101631.50
2023-04-02T03:11:20.336Z,101606.44
2023-04-02T03:13:53.872Z,101610.13
2023-04-02T03:16:29.949Z,101606.75
2023-04-02T03:19:10.965Z,101599.09
2023-04-02T03:21:49.544Z,101595.97
2023-04-02T03:24:25.505Z,101598.75
2023-04-02T03:27:02.019Z,101580.84
2023-04-02T03:29:36.038Z,101574.00
2023-04-02T03:32:10.794Z,101568.94
2023-04-02T03:34:47.355Z,101571.78
2023-04-02T03:37:24.487Z,101571.66
2023-04-02T03:39:59.489Z,101558.84
2023-04-02T03:42:33.071Z,101572.09
2023-04-02T03:45:07.898Z,101561.19
2023-04-02T03:47:42.624Z,101550.19
2023-04-02T03:50:19.466Z,101548.28
2023-04-02T03:52:50.513Z,101555.22
2023-04-02T03:55:24.795Z,101490.34
2023-04-02T03:58:04.320Z,101549.31
2023-04-02T04:00:41.007Z,101506.94
2023-04-02T04:03:17.120Z,101536.13
2023-04-02T04:05:53.564Z,101532.78
2023-04-02T04:08:28.255Z,101518.88
2023-04-02T04:11:01.762Z,101538.31
2023-04-02T04:13:37.790Z,101531.59
2023-04-02T04:16:12.681Z,101523.06
2023-04-02T04:18:49.955Z,101513.50
2023-04-02T04:21:31.672Z,101482.78
2023-04-02T04:24:06.652Z,101483.34
2023-04-02T04:26:43.975Z,101514.09
2023-04-02T04:29:28.781Z,101500.09
2023-04-02T04:32:02.382Z,101510.72
2023-04-02T04:34:43.042Z,101513.41
2023-04-02T04:37:26.024Z,101513.50
2023-04-02T04:40:00.465Z,101482.13
2023-04-02T04:42:34.992Z,101510.88
2023-04-02T04:45:16.196Z,101474.63
2023-04-02T04:47:55.066Z,101490.53
2023-04-02T04:50:33.375Z,101502.81
2023-04-02T04:53:16.396Z,101464.19
2023-04-02T04:55:49.828Z,101491.84
2023-04-02T04:58:25.460Z,101473.44
2023-04-02T05:01:06.607Z,101389.47
2023-04-02T05:03:41.940Z,101482.75
2023-04-02T05:06:18.186Z,101372.56
2023-04-02T05:08:54.415Z,101464.56
2023-04-02T05:11:31.239Z,101482.13
2023-04-02T05:14:06.310Z,101478.09
2023-04-02T05:16:41.601Z,101469.31
2023-04-02T05:19:17.631Z,101474.41
2023-04-02T05:21:52.658Z,101464.72
2023-04-02T05:24:55.618Z,101476.22
2023-04-02T05:27:36.362Z,101461.00
2023-04-02T05:30:15.809Z,101452.72
2023-04-02T05:32:53.138Z,101479.00
2023-04-02T05:35:31.441Z,101428.53
2023-04-02T05:38:06.331Z,101462.69
2023-04-02T05:40:42.138Z,101467.91
2023-04-02T05:43:18.430Z,101449.63
2023-04-02T05:45:58.430Z,101455.59
2023-04-02T05:48:33.733Z,101459.75
2023-04-02T05:51:06.792Z,101461.31
2023-04-02T05:53:43.629Z,101380.94
2023-04-02T05:56:20.772Z,101457.88
2023-04-02T05:58:58.849Z,101448.91
2023-04-02T06:01:38.986Z,101461.81
2023-04-02T06:04:19.467Z,101460.78
2023-04-02T06:06:59.990Z,101458.97
2023-04-02T06:09:41.400Z,101466.56
2023-04-02T06:12:25.643Z,101463.78
2023-04-02T06:14:57.921Z,101453.19
2023-04-02T06:17:31.426Z,101454.06
2023-04-02T06:20:05.697Z,101429.28
2023-04-02T06:22:41.981Z,101457.88
2023-04-02T06:25:20.728Z,101451.78
2023-04-02T06:27:53.108Z,101456.00
2023-04-02T06:30:30.991Z,101448.72
2023-04-02T06:33:01.827Z,101457.34
2023-04-02T06:35:32.815Z,101457.41
2023-04-02T06:38:07.771Z,101453.59
2023-04-02T06:40:45.004Z,101457.63
2023-04-02T06:43:23.784Z,101447.63
2023-04-02T06:46:00.422Z,101463.31
2023-04-02T06:48:34.096Z,101466.91
2023-04-02T06:51:10.012Z,101464.22
2023-04-02T06:53:44.037Z,101470.91
2023-04-02T06:56:25.349Z,101441.63
2023-04-02T06:58:56.448Z,101472.63
2023-04-02T07:01:36.463Z,101467.13
2023-04-02T07:04:07.348Z,101475.50
2023-04-02T07:06:37.914Z,101472.97
2023-04-02T07:09:12.381Z,101471.63
2023-04-02T07:11:42.870Z,101487.13
2023-04-02T07:14:15.223Z,101485.84
2023-04-02T07:16:47.734Z,101476.00
2023-04-02T07:19:23.240Z,101452.84
2023-04-02T07:21:53.593Z,101484.19
2023-04-02T07:24:24.709Z,101473.81
2023-04-02T07:26:55.278Z,101471.91
2023-04-02T07:29:25.691Z,101487.44
2023-04-02T07:31:57.858Z,101488.94
2023-04-02T07:34:28.642Z,101470.94
2023-04-02T07:36:59.744Z,101489.19
2023-04-02T07:39:30.458Z,101490.06
2023-04-02T07:42:03.278Z,101489.56
2023-04-02T07:44:33.859Z,101483.41
2023-04-02T07:47:06.222Z,101492.25
2023-04-02T07:49:36.925Z,101483.25
2023-04-02T07:52:07.762Z,101486.34
2023-04-02T07:54:39.054Z,101490.34
2023-04-02T07:57:10.566Z,101459.56
2023-04-02T07:59:43.797Z,101487.75
2023-04-02T08:02:23.829Z,101480.56
2023-04-02T08:04:55.824Z,101440.72
2023-04-02T08:07:27.469Z,101488.56
2023-04-02T08:09:58.964Z,101490.56
2023-04-02T08:12:30.499Z,101493.00
2023-04-02T08:15:02.088Z,101501.31
2023-04-02T08:17:35.849Z,101490.53
2023-04-02T08:20:09.079Z,101506.19
2023-04-02T08:22:40.695Z,101500.91
2023-04-02T08:25:13.625Z,101516.41
2023-04-02T08:27:45.370Z,101470.16
2023-04-02T08:30:17.890Z,101522.41
2023-04-02T08:32:51.327Z,101501.72
2023-04-02T08:35:24.713Z,101503.13
2023-04-02T08:37:56.244Z,101517.41
2023-04-02T08:40:32.742Z,101518.31
2023-04-02T08:43:33.515Z,101522.44
2023-04-02T08:46:12.847Z,101517.22
2023-04-02T08:48:51.938Z,101498.28
2023-04-02T08:51:27.433Z,101418.19
2023-04-02T08:54:03.429Z,101520.00
2023-04-02T08:56:41.330Z,101519.00
2023-04-02T08:59:22.464Z,101518.03
2023-04-02T09:02:00.565Z,101518.69
2023-04-02T09:04:38.060Z,101526.81
2023-04-02T09:07:09.944Z,101520.72
2023-04-02T09:09:42.213Z,101526.50
2023-04-02T09:12:28.982Z,101525.22
2023-04-02T09:15:09.886Z,101529.63
2023-04-02T09:17:54.016Z,101534.63
2023-04-02T09:20:29.689Z,101537.38
2023-04-02T09:23:01.419Z,101519.38
2023-04-02T09:25:34.599Z,101498.88
2023-04-02T09:28:07.693Z,101562.56
2023-04-02T09:30:56.946Z,101561.91
2023-04-02T09:33:46.303Z,101567.97
2023-04-02T09:36:37.251Z,101578.16
2023-04-02T09:39:11.014Z,101563.28
2023-04-02T09:41:42.883Z,101568.25
2023-04-02T09:44:33.438Z,101565.84
2023-04-02T09:47:06.943Z,101552.00
2023-04-02T09:49:39.799Z,101583.88
2023-04-02T09:52:25.207Z,101489.41
2023-04-02T09:55:22.830Z,101569.88
2023-04-02T09:58:09.686Z,101539.28
2023-04-02T10:00:42.262Z,101575.19
2023-04-02T10:03:27.184Z,101569.19
2023-04-02T10:06:15.071Z,101564.38
2023-04-02T10:08:48.977Z,101583.41
2023-04-02T10:11:28.836Z,101587.31
2023-04-02T10:14:06.621Z,101576.31
2023-04-02T10:16:42.562Z,101589.16
2023-04-02T10:19:21.970Z,101588.06
2023-04-02T10:21:55.135Z,101588.41
2023-04-02T10:24:31.664Z,101588.78
2023-04-02T10:27:13.613Z,101590.91
2023-04-02T10:30:04.058Z,101599.78
2023-04-02T10:32:40.784Z,101599.63
2023-04-02T10:35:20.364Z,101593.63
2023-04-02T10:38:18.584Z,101601.09
2023-04-02T10:40:59.878Z,101598.72
2023-04-02T10:44:18.969Z,101615.16
2023-04-02T10:47:04.569Z,101621.91
2023-04-02T10:49:44.461Z,101624.94
2023-04-02T10:52:23.420Z,101620.16
2023-04-02T10:54:56.753Z,101622.88
2023-04-02T10:57:40.495Z,101623.44
2023-04-02T11:00:24.286Z,101607.13
2023-04-02T11:03:02.308Z,101626.84
2023-04-02T11:05:41.577Z,101645.78
2023-04-02T11:08:19.759Z,101616.41
2023-04-02T11:10:54.006Z,101629.69
2023-04-02T11:13:34.264Z,101586.91
2023-04-02T11:16:08.824Z,101633.38
2023-04-02T11:18:39.657Z,101581.75
2023-04-02T11:21:14.088Z,101633.78
2023-04-02T11:24:01.246Z,101568.06
2023-04-02T11:26:38.316Z,101621.41
2023-04-02T11:29:23.758Z,101637.72
2023-04-02T11:32:16.283Z,101613.44
2023-04-02T11:35:07.541Z,101632.03
2023-04-02T11:37:40.432Z,101599.81
2023-04-02T11:40:51.323Z,101625.97
2023-04-02T11:44:00.664Z,101624.91
2023-04-02T11:46:52.790Z,101617.97
2023-04-02T11:49:43.954Z,101601.47
2023-04-02T11:52:28.305Z,101613.50
2023-04-02T11:55:21.261Z,101584.03
2023-04-02T11:58:14.486Z,101624.75
2023-04-02T12:01:04.974Z,101626.19
2023-04-02T12:04:04.056Z,101622.53
2023-04-02T12:07:03.904Z,101615.22
2023-04-02T12:09:46.584Z,101604.69
2023-04-02T12:12:27.293Z,101626.06
2023-04-02T12:15:02.047Z,101625.72
2023-04-02T12:17:36.464Z,101633.34
2023-04-02T12:20:25.761Z,101629.56
2023-04-02T12:22:58.806Z,101630.47
2023-04-02T12:25:32.312Z,101630.84
2023-04-02T12:28:21.534Z,101652.34
2023-04-02T12:30:53.317Z,101629.09
2023-04-02T12:33:34.708Z,101607.78
2023-04-02T12:36:10.845Z,101620.91
2023-04-02T12:38:48.602Z,101612.25
2023-04-02T12:41:31.071Z,101603.75
2023-04-02T12:44:04.140Z,101624.75
2023-04-02T12:46:37.636Z,101611.44
2023-04-02T12:49:11.188Z,101590.47
2023-04-02T12:51:43.467Z,101605.03
2023-04-02T12:54:18.370Z,101613.56
2023-04-02T12:56:49.178Z,101615.94
2023-04-02T12:59:44.495Z,101610.03
2023-04-02T13:02:21.968Z,101605.19
2023-04-02T13:05:04.991Z,101512.88
2023-04-02T13:07:40.318Z,101582.50
2023-04-02T13:10:29.765Z,101614.97
2023-04-02T13:13:02.327Z,101624.03
2023-04-02T13:15:35.254Z,101615.59
2023-04-02T13:18:11.040Z,101606.41
2023-04-02T13:20:45.842Z,101608.97
2023-04-02T13:23:37.076Z,101618.97
2023-04-02T13:26:19.846Z,101614.97
2023-04-02T13:29:00.221Z,101612.97
2023-04-02T13:31:30.942Z,101613.69
2023-04-02T13:34:01.584Z,101617.69
2023-04-02T13:36:34.380Z,101622.03
2023-04-02T13:39:09.502Z,101614.66
2023-04-02T13:41:46.992Z,101581.00
2023-04-02T13:44:27.655Z,101605.84
2023-04-02T13:46:58.998Z,101590.44
2023-04-02T13:49:33.285Z,101579.31
2023-04-02T13:52:06.074Z,101570.88
2023-04-02T13:54:54.412Z,101618.34
2023-04-02T13:57:24.940Z,101614.50
2023-04-02T13:59:55.472Z,101609.34
2023-04-02T14:02:28.273Z,101618.03
2023-04-02T14:05:32.328Z,101617.84
2023-04-02T14:08:37.593Z,101614.25
2023-04-02T14:11:23.830Z,101626.69
2023-04-02T14:14:22.052Z,101615.16
2023-04-02T14:17:02.744Z,101615.31
2023-04-02T14:19:48.924Z,101580.19
2023-04-02T14:22:31.510Z,101610.81
2023-04-02T14:25:12.292Z,101613.19
2023-04-02T14:28:56.186Z,101614.50
2023-04-02T14:31:48.145Z,101609.03
2023-04-02T14:34:47.548Z,101590.91
2023-04-02T14:37:43.465Z,101600.06
2023-04-02T14:40:33.885Z,101601.66
2023-04-02T14:43:53.966Z,101573.47
2023-04-02T14:47:01.878Z,101594.78
2023-04-02T14:49:41.113Z,101597.97
2023-04-02T14:55:58.014Z,101587.88
2023-04-02T14:58:33.695Z,101600.69
2023-04-02T15:01:14.805Z,101596.88
2023-04-02T15:03:59.964Z,101584.69
2023-04-02T15:06:42.733Z,101599.25
2023-04-02T15:09:26.218Z,101581.47
2023-04-02T15:12:29.534Z,101598.94
2023-04-02T15:15:09.795Z,101599.41
2023-04-02T15:17:45.077Z,101595.25
2023-04-02T15:20:22.862Z,101604.41
2023-04-02T15:23:26.798Z,101587.56
2023-04-02T15:26:09.358Z,101600.06
2023-04-02T15:28:46.111Z,101599.91
2023-04-02T15:31:22.743Z,101553.34
2023-04-02T15:34:06.652Z,101589.66
2023-04-02T15:37:07.463Z,101609.69
2023-04-02T15:39:57.790Z,101591.88
2023-04-02T15:42:34.008Z,101589.09
2023-04-02T15:45:29.648Z,101574.56
2023-04-02T15:48:38.589Z,101579.69
2023-04-02T15:51:45.307Z,101565.59
2023-04-02T15:54:31.261Z,101554.06
2023-04-02T15:57:19.878Z,101568.47
2023-04-02T16:00:12.446Z,101576.47
2023-04-02T16:03:10.136Z,101500.22
2023-04-02T16:06:22.356Z,101521.47
2023-04-02T16:09:09.473Z,101525.53
2023-04-02T16:11:55.138Z,101562.88
2023-04-02T16:14:42.031Z,101536.28
2023-04-02T16:17:42.444Z,101551.25
2023-04-02T16:20:25.474Z,101563.66
2023-04-02T16:23:03.242Z,101556.31
2023-04-02T16:25:46.465Z,101567.22
2023-04-02T16:28:33.172Z,101547.66
2023-04-02T16:31:17.498Z,101480.91
2023-04-02T16:34:06.437Z,101560.41
2023-04-02T16:36:53.879Z,101560.53
2023-04-02T16:39:39.257Z,101503.56
2023-04-02T16:42:29.955Z,101556.16
2023-04-02T16:45:16.400Z,101549.84
2023-04-02T16:48:08.939Z,101534.47
2023-04-02T16:51:05.255Z,101516.84
2023-04-02T16:54:01.519Z,101546.84
2023-04-02T16:57:04.064Z,101557.81
2023-04-02T17:00:04.166Z,101548.69
2023-04-02T17:03:26.984Z,101555.84
2023-04-02T17:06:43.773Z,101543.50
2023-04-02T17:09:35.449Z,101551.19
2023-04-02T17:12:25.942Z,101511.59
2023-04-02T17:15:40.606Z,101527.47
2023-04-02T17:18:32.687Z,101536.13
2023-04-02T17:21:09.667Z,101527.63
2023-04-02T17:24:01.041Z,101499.09
2023-04-02T17:26:36.160Z,101524.75
2023-04-02T17:29:35.044Z,101521.19
2023-04-02T17:32:15.905Z,101530.66
2023-04-02T17:34:51.773Z,101535.97
2023-04-02T17:37:43.913Z,101540.91
2023-04-02T17:40:26.599Z,101436.66
2023-04-02T17:43:05.358Z,101545.72
2023-04-02T17:45:48.660Z,101552.59
2023-04-02T17:48:25.651Z,101546.03
2023-04-02T17:51:13.502Z,101523.28
2023-04-02T17:54:01.310Z,101542.84
2023-04-02T17:56:48.350Z,101555.31
2023-04-02T17:59:38.514Z,101566.66
2023-04-02T18:02:31.708Z,101548.88
2023-04-02T18:05:23.954Z,101559.00
2023-04-02T18:08:13.247Z,101566.00
2023-04-02T18:11:02.418Z,101563.66
2023-04-02T18:13:49.876Z,101571.59
2023-04-02T18:16:47.035Z,101572.66
2023-04-02T18:19:20.798Z,101568.34
2023-04-02T18:21:57.577Z,101580.34
2023-04-02T18:24:49.371Z,101548.94
2023-04-02T18:27:49.020Z,101575.69
2023-04-02T18:30:26.101Z,101566.22
2023-04-02T18:33:44.942Z,101533.09
2023-04-02T18:36:31.084Z,101568.91
2023-04-02T18:39:23.206Z,101570.09
2023-04-02T18:42:10.385Z,101546.53
2023-04-02T18:45:05.665Z,101557.28
2023-04-02T18:48:04.815Z,101564.31
2023-04-02T18:50:49.523Z,101539.00
2023-04-02T18:53:26.001Z,101510.50
2023-04-02T18:56:07.623Z,101512.66
2023-04-02T18:58:53.656Z,101551.16
2023-04-02T19:01:28.760Z,101508.72
2023-04-02T19:04:08.824Z,101485.00
2023-04-02T19:06:39.542Z,101557.91
2023-04-02T19:09:17.240Z,101556.47
2023-04-02T19:11:55.216Z,101544.75
2023-04-02T19:14:27.453Z,101460.47
2023-04-02T19:17:14.835Z,101519.75
2023-04-02T19:19:59.819Z,101562.78
2023-04-02T19:22:40.035Z,101521.19
2023-04-02T19:25:32.629Z,101568.50
2023-04-02T19:28:16.581Z,101569.38
2023-04-02T19:31:07.537Z,101570.16
2023-04-02T19:33:50.782Z,101575.28
2023-04-02T19:36:41.747Z,101568.97
2023-04-02T19:39:48.226Z,101576.97
2023-04-02T19:42:31.168Z,101582.59
2023-04-02T19:45:01.973Z,101577.16
2023-04-02T19:47:34.539Z,101579.16
2023-04-02T19:50:10.244Z,101579.41
2023-04-02T19:52:42.754Z,101583.81
2023-04-02T19:55:15.378Z,101574.31
2023-04-02T19:57:45.908Z,101590.44
2023-04-02T20:00:30.900Z,101585.47
2023-04-02T20:03:03.007Z,101580.69
2023-04-02T20:05:33.540Z,101589.00
2023-04-02T20:08:03.963Z,101591.97
2023-04-02T20:10:34.588Z,101584.91
2023-04-02T20:13:05.191Z,101579.47
2023-04-02T20:15:35.931Z,101589.31
2023-04-02T20:18:08.657Z,101575.84
2023-04-02T20:20:39.994Z,101591.25
2023-04-02T20:23:10.553Z,101589.50
2023-04-02T20:25:42.401Z,101597.34
2023-04-02T20:28:12.743Z,101591.63
2023-04-02T20:30:43.318Z,101594.44
2023-04-02T20:33:15.542Z,101592.69
2023-04-02T20:35:46.174Z,101591.25
2023-04-02T20:38:16.769Z,101590.53
2023-04-02T20:40:53.589Z,101574.56
2023-04-02T20:43:24.220Z,101546.03
2023-04-02T20:45:58.892Z,101584.81
2023-04-02T20:48:33.093Z,101576.88
2023-04-02T20:51:05.069Z,101575.13
2023-04-02T20:53:36.848Z,101580.69
2023-04-02T20:56:09.033Z,101587.56
2023-04-02T20:58:40.844Z,101580.50
2023-04-02T21:01:13.907Z,101591.25
2023-04-02T21:03:46.255Z,101494.13
2023-04-02T21:06:21.248Z,101592.06
2023-04-02T21:08:52.517Z,101582.28
2023-04-02T21:11:23.903Z,101574.91
2023-04-02T21:13:54.372Z,101609.09
2023-04-02T21:16:29.162Z,101602.47
2023-04-02T21:19:04.119Z,101544.72
2023-04-02T21:21:35.020Z,101623.75
2023-04-02T21:24:07.179Z,101596.94
2023-04-02T21:26:52.167Z,101609.84
2023-04-02T21:29:29.399Z,101606.50
2023-04-02T21:32:03.549Z,101606.63
2023-04-02T21:34:43.291Z,101610.47
2023-04-02T21:37:14.806Z,101611.28
2023-04-02T21:39:46.281Z,101616.56
2023-04-02T21:42:17.783Z,101614.97
2023-04-02T21:44:50.074Z,101605.25
2023-04-02T21:47:24.810Z,101604.69
2023-04-02T21:49:58.109Z,101615.94
2023-04-02T21:52:29.655Z,101626.50
2023-04-02T21:55:01.175Z,101610.00
2023-04-02T21:57:32.663Z,101617.84
2023-04-02T22:00:09.268Z,101620.97
2023-04-02T22:02:40.986Z,101626.75
2023-04-02T22:05:14.610Z,101637.31
2023-04-02T22:07:47.067Z,101634.72
2023-04-02T22:10:18.839Z,101622.50
2023-04-02T22:12:50.485Z,101624.31
2023-04-02T22:15:22.220Z,101631.66
2023-04-02T22:17:53.575Z,101632.84
2023-04-02T22:20:27.101Z,101633.13
2023-04-02T22:22:58.934Z,101630.03
2023-04-02T22:25:30.430Z,101626.47
2023-04-02T22:28:02.123Z,101633.50
2023-04-02T22:30:33.898Z,101636.38
2023-04-02T22:33:05.825Z,101626.44
2023-04-02T22:35:41.447Z,101630.84
2023-04-02T22:38:13.939Z,101627.75
2023-04-02T22:40:45.158Z,101626.38
2023-04-02T22:43:16.782Z,101622.31
2023-04-02T22:45:48.858Z,101629.22
2023-04-02T22:48:21.692Z,101625.25
2023-04-02T22:50:56.404Z,101623.81
2023-04-02T22:53:28.345Z,101627.72
2023-04-02T22:56:04.695Z,101633.28
2023-04-02T22:58:36.511Z,101630.50
2023-04-02T23:01:09.407Z,101622.88
2023-04-02T23:03:41.472Z,101632.53
2023-04-02T23:06:16.413Z,101581.66
2023-04-02T23:08:48.497Z,101616.69
2023-04-02T23:11:22.444Z,101594.34
2023-04-02T23:13:55.977Z,101616.44
2023-04-02T23:16:29.559Z,101618.59
2023-04-02T23:19:01.615Z,101625.88
2023-04-02T23:21:35.078Z,101633.16
2023-04-02T23:24:06.587Z,101630.38
2023-04-02T23:26:40.192Z,101627.22
2023-04-02T23:29:12.679Z,101634.22
2023-04-02T23:31:44.636Z,101592.38
2023-04-02T23:34:16.449Z,101624.16
2023-04-02T23:36:49.637Z,101626.09
2023-04-02T23:39:21.663Z,101621.69
2023-04-02T23:41:53.487Z,101627.19
2023-04-02T23:44:25.519Z,101531.38
2023-04-02T23:46:57.562Z,101629.34
2023-04-02T23:49:29.568Z,101628.50
2023-04-02T23:52:02.652Z,101631.16
2023-04-02T23:54:39.836Z,101603.91
2023-04-02T23:57:12.971Z,101626.75
2023-04-02T23:59:44.590Z,101630.03
